Time;durP1;ratioP1;P1;durP2;ratioP2;P2;SDS_P1;SDS_P2;PMS_P1;PMS_P2;Temp;Humidity;BMP_temperature;BMP_pressure;BME280_temperature;BME280_humidity;BME280_pressure;Samples;Min_cycle;Max_cycle;Signal;HPM_P1;HPM_P2
2023/01/02 00:00:46;;;;;;;;;40.75;34.50;;;;;13.06;58.08;99457.22;6180452;28;96488;-63
2023/01/02 00:03:49;;;;;;;;;42.25;33.25;;;;;13.12;58.15;99456.34;6182068;28;96202;-63
2023/01/02 00:06:53;;;;;;;;;37.20;32.40;;;;;13.16;58.41;99445.91;6181709;28;96401;-64
2023/01/02 00:09:58;;;;;;;;;37.50;32.00;;;;;13.21;59.14;99440.63;6182062;28;96251;-64
2023/01/02 00:13:01;;;;;;;;;38.00;32.40;;;;;13.24;59.05;99438.28;6181900;28;96305;-63
2023/01/02 00:16:05;;;;;;;;;37.20;31.80;;;;;13.31;59.06;99427.41;6182288;28;96319;-63
2023/01/02 00:19:09;;;;;;;;;33.00;28.50;;;;;13.36;59.22;99424.84;6182167;28;96314;-63
2023/01/02 00:22:12;;;;;;;;;39.40;33.80;;;;;13.36;59.27;99425.69;6182775;28;96255;-63
2023/01/02 00:25:17;;;;;;;;;39.20;33.60;;;;;13.39;58.73;99419.78;6182372;28;96375;-63
2023/01/02 00:28:20;;;;;;;;;39.20;32.00;;;;;13.37;58.34;99426.50;6182516;28;96371;-63
2023/01/02 00:31:23;;;;;;;;;34.40;30.40;;;;;13.29;57.65;99426.81;6180478;28;96484;-63
2023/01/02 00:34:45;;;;;;;;;35.00;30.00;;;;;13.25;58.05;99439.13;6182706;28;97167;-63
2023/01/02 00:37:48;;;;;;;;;37.00;32.00;;;;;13.24;57.60;99442.91;6182754;28;96525;-63
2023/01/02 00:40:53;;;;;;;;;35.00;30.40;;;;;13.27;58.02;99439.75;6181886;28;96914;-64
2023/01/02 00:43:57;;;;;;;;;37.75;32.00;;;;;13.28;57.76;99447.66;6184838;28;96467;-63
2023/01/02 00:47:00;;;;;;;;;37.60;32.00;;;;;13.28;58.24;99438.69;6186252;28;97517;-63
2023/01/02 00:50:05;;;;;;;;;36.00;31.60;;;;;13.29;57.83;99437.66;6186517;28;96221;-63
2023/01/02 00:53:08;;;;;;;;;37.00;33.00;;;;;13.21;57.06;99449.59;6186438;27;96634;-63
2023/01/02 00:56:12;;;;;;;;;35.00;32.00;;;;;13.16;56.82;99444.03;6185532;28;96772;-63
2023/01/02 00:59:16;;;;;;;;;38.40;33.00;;;;;13.07;56.55;99442.63;6183592;28;96798;-63
2023/01/02 01:02:19;;;;;;;;;35.00;32.00;;;;;12.95;56.41;99431.72;6185325;28;96371;-63
2023/01/02 01:05:23;;;;;;;;;36.20;33.00;;;;;12.87;56.31;99423.88;6184893;28;96523;-63
2023/01/02 01:08:27;;;;;;;;;39.40;32.00;;;;;12.76;55.99;99437.31;6185868;28;96383;-63
2023/01/02 01:11:32;;;;;;;;;36.80;32.00;;;;;12.68;57.12;99432.19;6186211;28;96609;-64
2023/01/02 01:14:35;;;;;;;;;42.00;35.00;;;;;12.64;57.27;99423.69;6185582;28;96784;-64
2023/01/02 01:17:38;;;;;;;;;40.25;33.25;;;;;12.62;57.40;99423.09;6185464;28;96558;-64
2023/01/02 01:20:42;;;;;;;;;37.75;33.00;;;;;12.59;57.15;99426.25;6185672;28;96354;-64
2023/01/02 01:23:50;;;;;;;;;36.40;32.40;;;;;12.55;57.33;99431.28;6185875;28;96376;-63
2023/01/02 01:26:54;;;;;;;;;43.00;35.00;;;;;12.51;57.51;99423.81;6185429;28;96440;-63
2023/01/02 01:29:58;;;;;;;;;33.40;31.20;;;;;12.49;57.19;99421.34;6185079;28;96321;-63
2023/01/02 01:33:01;;;;;;;;;36.60;32.00;;;;;12.38;57.31;99427.44;6179954;28;96257;-63
2023/01/02 01:36:07;;;;;;;;;40.00;33.00;;;;;12.12;55.53;99420.34;6185479;28;96391;-63
2023/01/02 01:39:10;;;;;;;;;42.40;33.00;;;;;11.96;56.43;99418.19;6185223;28;97325;-64
2023/01/02 01:42:15;;;;;;;;;43.50;35.00;;;;;11.82;57.00;99418.50;6185439;28;96276;-63
2023/01/02 01:45:19;;;;;;;;;43.50;35.00;;;;;11.63;57.01;99396.72;6183111;28;98551;-62
2023/01/02 01:48:23;;;;;;;;;40.00;34.00;;;;;11.70;56.48;99426.41;6185023;28;96309;-63
2023/01/02 01:51:28;;;;;;;;;42.00;36.00;;;;;11.61;56.65;99417.75;6185264;28;96353;-63
2023/01/02 01:54:36;;;;;;;;;38.40;33.40;;;;;11.61;57.91;99414.22;6184204;28;96136;-64
2023/01/02 01:57:44;;;;;;;;;39.00;33.00;;;;;11.57;57.65;99413.81;6185771;28;96377;-64
2023/01/02 02:00:49;;;;;;;;;41.75;35.00;;;;;11.53;58.01;99412.56;6184504;28;96381;-64
2023/01/02 02:03:52;;;;;;;;;38.00;32.60;;;;;11.50;58.07;99412.16;6183618;27;98581;-64
2023/01/02 02:06:55;;;;;;;;;39.50;34.00;;;;;11.38;58.19;99376.94;6184855;28;96337;-64
2023/01/02 02:10:05;;;;;;;;;41.80;34.00;;;;;11.60;58.22;99397.16;6184739;28;96414;-63
2023/01/02 02:13:11;;;;;;;;;40.00;33.20;;;;;11.62;58.54;99402.38;6185737;28;96479;-63
2023/01/02 02:16:25;;;;;;;;;40.50;34.00;;;;;11.64;58.58;99401.09;6184722;28;96443;-63
2023/01/02 02:19:58;;;;;;;;;39.40;33.00;;;;;11.70;58.23;99397.53;6184743;28;96876;-63
2023/01/02 02:23:28;;;;;;;;;39.20;32.00;;;;;11.72;58.34;99397.31;6185153;28;96916;-64
2023/01/02 02:27:01;;;;;;;;;40.75;34.25;;;;;11.81;59.56;99398.75;6184705;28;96348;-64
2023/01/02 02:30:24;;;;;;;;;38.60;33.00;;;;;11.90;59.81;99396.63;6184151;28;96242;-64
2023/01/02 02:33:43;;;;;;;;;44.00;35.00;;;;;11.89;59.43;99394.94;6185502;28;96780;-62
2023/01/02 02:36:53;;;;;;;;;42.40;32.40;;;;;11.89;60.31;99397.66;6184551;28;96368;-63
2023/01/02 02:40:11;;;;;;;;;45.00;35.00;;;;;11.74;60.00;99379.03;6184161;28;96365;-63
2023/01/02 02:43:22;;;;;;;;;42.40;33.00;;;;;11.85;60.44;99399.97;6183414;28;96239;-63
2023/01/02 02:46:33;;;;;;;;;43.60;35.60;;;;;11.82;59.92;99394.19;6184562;28;96570;-63
2023/01/02 02:49:48;;;;;;;;;36.40;32.00;;;;;11.84;60.30;99386.66;6184466;28;96498;-63
2023/01/02 02:52:59;;;;;;;;;43.00;35.00;;;;;11.84;60.36;99387.50;6184554;28;96995;-62
2023/01/02 02:56:07;;;;;;;;;38.00;30.80;;;;;11.88;60.80;99386.00;6184165;28;96496;-63
2023/01/02 02:59:12;;;;;;;;;41.50;34.50;;;;;11.85;60.00;99377.53;6184220;28;96452;-62
2023/01/02 03:02:18;;;;;;;;;41.25;34.00;;;;;11.78;58.92;99382.97;6177041;28;97335;-63
2023/01/02 03:05:28;;;;;;;;;43.60;34.60;;;;;11.70;59.03;99375.91;6179694;28;96499;-63
2023/01/02 03:08:41;;;;;;;;;39.75;33.25;;;;;11.61;58.90;99376.41;6184625;28;96965;-62
2023/01/02 03:11:55;;;;;;;;;41.50;34.50;;;;;11.50;57.58;99380.59;6175186;28;96719;-63
2023/01/02 03:15:09;;;;;;;;;41.75;35.00;;;;;11.43;57.72;99379.81;6183185;28;96304;-62
2023/01/02 03:18:26;;;;;;;;;35.60;31.40;;;;;11.38;57.66;99381.50;6184515;28;96238;-63
2023/01/02 03:21:33;;;;;;;;;42.60;35.60;;;;;11.27;58.41;99364.09;6184339;28;96920;-63
2023/01/02 03:24:38;;;;;;;;;43.00;34.60;;;;;11.17;58.68;99372.66;6184266;28;96296;-63
2023/01/02 03:27:45;;;;;;;;;38.60;33.00;;;;;11.08;57.75;99370.41;6183864;28;96548;-63
2023/01/02 03:30:54;;;;;;;;;43.60;34.80;;;;;10.97;57.04;99371.91;6182767;28;96483;-63
2023/01/02 03:34:04;;;;;;;;;39.80;33.00;;;;;10.82;56.99;99366.75;6183422;28;96356;-64
2023/01/02 03:37:12;;;;;;;;;42.00;35.50;;;;;10.85;58.21;99377.09;6183215;28;97472;-63
2023/01/02 03:40:20;;;;;;;;;39.60;34.20;;;;;10.79;57.54;99369.88;6182612;28;96345;-63
2023/01/02 03:43:30;;;;;;;;;36.00;32.00;;;;;10.78;58.47;99368.22;6182848;28;97544;-64
2023/01/02 03:46:41;;;;;;;;;42.40;34.40;;;;;10.82;59.83;99368.63;6183221;27;98356;-63
2023/01/02 03:49:51;;;;;;;;;37.00;32.00;;;;;10.85;60.59;99368.19;6183841;28;96166;-62
2023/01/02 03:52:56;;;;;;;;;36.20;32.00;;;;;10.82;60.58;99353.25;6183966;28;96259;-63
2023/01/02 03:56:14;;;;;;;;;41.60;33.60;;;;;10.80;59.70;99355.34;6180813;28;96203;-63
2023/01/02 03:59:26;;;;;;;;;38.60;32.00;;;;;10.71;61.04;99353.06;6180538;28;96326;-63
2023/01/02 04:02:36;;;;;;;;;35.40;31.40;;;;;10.74;59.41;99349.97;6177417;28;96347;-63
2023/01/02 04:05:47;;;;;;;;;37.40;33.00;;;;;10.66;58.80;99353.72;6212126;27;97475;-63
2023/01/02 04:09:02;;;;;;;;;43.50;34.75;;;;;10.68;59.25;99357.03;6181536;28;96999;-63
2023/01/02 04:12:09;;;;;;;;;40.00;33.00;;;;;10.74;61.09;99349.97;6180258;28;96352;-63
2023/01/02 04:15:15;;;;;;;;;45.00;35.00;;;;;10.80;61.50;99354.50;6181259;28;98025;-63
2023/01/02 04:18:23;;;;;;;;;41.00;33.00;;;;;10.83;60.57;99359.50;6196876;27;96953;-63
2023/01/02 04:21:32;;;;;;;;;37.00;33.00;;;;;10.78;59.04;99353.91;6184695;28;96483;-64
2023/01/02 04:24:41;;;;;;;;;41.80;34.80;;;;;10.75;59.86;99355.13;6184461;28;97410;-63
2023/01/02 04:27:51;;;;;;;;;42.00;34.20;;;;;10.76;60.80;99353.28;6162659;28;96534;-63
2023/01/02 04:31:00;;;;;;;;;39.50;34.50;;;;;10.80;60.33;99349.09;6175141;28;96480;-63
2023/01/02 04:34:06;;;;;;;;;38.40;33.00;;;;;10.66;61.43;99334.84;6179305;28;96260;-63
2023/01/02 04:37:25;;;;;;;;;40.00;33.50;;;;;10.74;60.71;99342.72;6186512;28;96600;-62
2023/01/02 04:40:30;;;;;;;;;43.33;35.33;;;;;10.71;59.58;99339.59;6178697;28;96873;-63
2023/01/02 04:43:33;;;;;;;;;42.40;34.00;;;;;10.65;59.45;99341.25;6175651;28;97347;-63
2023/01/02 04:46:37;;;;;;;;;40.40;32.00;;;;;10.62;59.70;99344.41;6181980;28;96997;-63
2023/01/02 04:49:40;;;;;;;;;38.75;32.25;;;;;10.59;60.24;99335.91;6175751;28;96513;-63
2023/01/02 04:52:45;;;;;;;;;43.60;34.00;;;;;10.62;60.68;99332.78;6184563;28;96873;-63
2023/01/02 04:55:48;;;;;;;;;39.60;33.00;;;;;10.61;60.94;99331.13;6184821;28;96641;-63
2023/01/02 04:58:52;;;;;;;;;36.60;32.60;;;;;10.66;60.70;99323.22;6185494;28;96981;-63
2023/01/02 05:01:55;;;;;;;;;36.80;31.80;;;;;10.64;60.49;99325.31;6183704;28;96438;-63
2023/01/02 05:04:59;;;;;;;;;33.40;30.40;;;;;10.56;59.71;99326.34;6185048;28;96387;-63
2023/01/02 05:08:04;;;;;;;;;42.00;35.00;;;;;10.48;59.15;99321.19;6181939;28;96438;-64
2023/01/02 05:11:15;;;;;;;;;40.40;33.40;;;;;10.34;58.83;99314.19;6181130;28;97287;-63
2023/01/02 05:14:19;;;;;;;;;37.50;33.00;;;;;10.34;59.48;99315.00;6184661;28;96555;-63
2023/01/02 05:17:22;;;;;;;;;38.40;33.20;;;;;10.28;59.26;99323.09;6183377;28;96236;-63
2023/01/02 05:20:25;;;;;;;;;41.00;33.00;;;;;10.20;59.10;99316.06;6181867;28;97451;-63
2023/01/02 05:23:47;;;;;;;;;35.00;31.00;;;;;10.14;58.45;99313.34;6174214;28;97442;-64
2023/01/02 05:26:51;;;;;;;;;39.00;32.50;;;;;10.09;58.65;99310.44;6167753;28;96310;-62
2023/01/02 05:29:55;;;;;;;;;36.40;32.00;;;;;10.05;58.44;99306.50;6164214;28;96604;-63
2023/01/02 05:32:58;;;;;;;;;36.20;32.00;;;;;9.99;58.61;99306.31;6161242;27;96744;-62
2023/01/02 05:36:03;;;;;;;;;35.20;32.00;;;;;9.91;59.18;99309.22;6175253;28;96838;-63
2023/01/02 05:39:10;;;;;;;;;37.80;32.00;;;;;9.84;58.53;99297.59;6182945;28;96297;-63
2023/01/02 05:42:14;;;;;;;;;41.00;34.00;;;;;9.90;58.72;99309.41;6181264;27;96589;-63
2023/01/02 05:45:17;;;;;;;;;37.80;31.80;;;;;9.80;58.26;99296.34;6173884;28;96249;-63
2023/01/02 05:48:20;;;;;;;;;36.80;32.20;;;;;9.69;58.05;99305.03;6175372;28;96211;-63
2023/01/02 05:51:24;;;;;;;;;37.00;31.80;;;;;9.72;58.45;99303.81;6184359;28;96280;-63
2023/01/02 05:54:28;;;;;;;;;33.50;30.75;;;;;9.72;58.35;99301.13;6176885;28;96368;-64
2023/01/02 05:57:33;;;;;;;;;37.00;33.00;;;;;9.68;58.55;99294.47;6179782;28;96478;-63
2023/01/02 06:00:37;;;;;;;;;32.60;30.80;;;;;9.66;58.25;99301.94;6181638;28;96759;-63
2023/01/02 06:03:45;;;;;;;;;37.40;32.00;;;;;9.64;58.42;99291.38;6179830;28;96763;-63
2023/01/02 06:06:48;;;;;;;;;39.40;33.00;;;;;9.64;58.06;99285.97;6182944;28;96239;-63
2023/01/02 06:09:53;;;;;;;;;35.00;30.00;;;;;9.63;57.94;99287.00;6180831;28;96730;-64
2023/01/02 06:12:56;;;;;;;;;40.20;34.60;;;;;9.61;57.66;99285.56;6179805;28;96577;-63
2023/01/02 06:16:01;;;;;;;;;36.20;32.80;;;;;9.60;57.69;99286.59;6183053;28;97174;-63
2023/01/02 06:19:05;;;;;;;;;36.00;31.40;;;;;9.63;57.11;99288.91;6184032;28;96226;-64
2023/01/02 06:22:08;;;;;;;;;40.00;33.75;;;;;9.62;57.42;99282.69;6183839;27;96759;-64
2023/01/02 06:25:13;;;;;;;;;39.60;33.00;;;;;9.58;57.35;99281.41;6171211;27;97571;-64
2023/01/02 06:28:17;;;;;;;;;37.00;32.00;;;;;9.54;57.31;99286.38;6182377;28;96311;-63
2023/01/02 06:31:22;;;;;;;;;38.00;34.60;;;;;9.53;57.80;99300.03;6184654;27;96402;-63
2023/01/02 06:34:26;;;;;;;;;41.60;32.80;;;;;9.58;57.80;99298.41;6182667;28;96885;-63
2023/01/02 06:37:29;;;;;;;;;41.40;32.00;;;;;9.68;58.55;99302.53;6181624;28;96885;-63
2023/01/02 06:40:34;;;;;;;;;43.00;35.40;;;;;9.76;58.87;99303.19;6180345;28;96880;-63
2023/01/02 06:43:43;;;;;;;;;35.40;32.40;;;;;9.79;57.99;99289.31;6180929;27;99257;-64
2023/01/02 06:46:46;;;;;;;;;45.00;36.00;;;;;9.77;58.19;99307.56;6177805;28;96641;-63
2023/01/02 06:49:50;;;;;;;;;35.50;32.00;;;;;9.76;57.90;99307.75;6173321;28;95993;-64
2023/01/02 06:52:53;;;;;;;;;43.40;35.00;;;;;9.77;57.72;99312.09;6163903;28;96506;-63
2023/01/02 06:55:58;;;;;;;;;39.75;33.00;;;;;9.78;58.03;99313.75;6184226;28;96227;-63
2023/01/02 06:59:02;;;;;;;;;39.80;33.40;;;;;9.82;57.40;99325.78;6184191;28;96664;-63
2023/01/02 07:02:05;;;;;;;;;38.40;32.00;;;;;9.86;57.32;99327.84;6184272;28;96369;-64
2023/01/02 07:05:10;;;;;;;;;41.00;35.00;;;;;9.81;57.41;99308.78;6182700;28;96638;-64
2023/01/02 07:08:13;;;;;;;;;45.25;37.00;;;;;10.02;57.87;99340.06;6158747;28;96495;-64
2023/01/02 07:11:20;;;;;;;;;42.40;34.00;;;;;10.18;56.81;99341.53;6158853;28;96583;-64
2023/01/02 07:14:24;;;;;;;;;39.60;33.80;;;;;10.30;56.54;99343.41;6164789;27;96635;-63
2023/01/02 07:17:27;;;;;;;;;46.75;37.25;;;;;10.46;56.71;99333.25;6182087;28;96994;-63
2023/01/02 07:20:31;;;;;;;;;50.80;40.80;;;;;10.60;56.58;99348.34;6176942;28;96355;-64
2023/01/02 07:23:34;;;;;;;;;48.80;39.40;;;;;10.70;56.67;99338.75;6182130;28;96401;-64
2023/01/02 07:26:39;;;;;;;;;49.00;40.00;;;;;11.10;55.70;99328.66;6182951;28;97973;-63
2023/01/02 07:29:42;;;;;;;;;52.00;42.60;;;;;11.44;54.83;99332.84;6182272;28;96831;-63
2023/01/02 07:32:46;;;;;;;;;53.67;43.33;;;;;11.83;54.37;99336.38;6178440;28;96400;-64
2023/01/02 07:35:49;;;;;;;;;53.00;43.50;;;;;12.27;53.08;99333.53;6176633;28;96389;-63
2023/01/02 07:38:54;;;;;;;;;54.20;43.40;;;;;12.97;51.62;99328.66;6164686;28;96413;-64
2023/01/02 07:41:59;;;;;;;;;52.40;42.40;;;;;13.43;49.96;99333.50;6174817;28;96881;-63
2023/01/02 07:45:02;;;;;;;;;54.00;44.00;;;;;13.97;49.13;99327.09;6177907;28;96426;-64
2023/01/02 07:48:06;;;;;;;;;50.00;40.20;;;;;14.55;47.51;99326.34;6171714;28;96453;-63
2023/01/02 07:51:10;;;;;;;;;55.75;44.00;;;;;15.04;46.07;99320.38;6164382;28;96263;-64
2023/01/02 07:54:14;;;;;;;;;53.60;43.80;;;;;15.06;46.44;99320.94;6177047;28;97358;-64
2023/01/02 07:57:18;;;;;;;;;55.00;44.00;;;;;14.93;46.52;99314.94;6180468;28;98481;-64
2023/01/02 08:00:22;;;;;;;;;55.60;44.40;;;;;14.83;46.96;99317.44;6173210;28;96453;-63
2023/01/02 08:03:26;;;;;;;;;56.00;42.00;;;;;15.08;46.97;99318.00;6187108;27;96460;-64
2023/01/02 08:06:29;;;;;;;;;55.40;43.60;;;;;15.78;46.26;99320.47;6180115;28;96398;-64
2023/01/02 08:09:34;;;;;;;;;52.20;42.80;;;;;16.92;43.66;99313.53;6186606;28;97109;-64
2023/01/02 08:12:39;;;;;;;;;53.00;42.00;;;;;17.98;41.55;99303.84;6186318;28;96315;-64
2023/01/02 08:15:42;;;;;;;;;55.00;42.00;;;;;18.83;40.02;99319.22;6185800;28;96865;-64
2023/01/02 08:18:50;;;;;;;;;53.40;44.00;;;;;19.48;38.72;99314.34;6183046;28;96655;-64
2023/01/02 08:21:53;;;;;;;;;53.00;42.00;;;;;20.19;37.33;99305.13;6182196;28;97014;-64
2023/01/02 08:24:56;;;;;;;;;49.00;39.00;;;;;21.20;35.97;99317.84;6186048;28;96190;-64
2023/01/02 08:28:01;;;;;;;;;52.00;41.00;;;;;22.07;34.09;99324.50;6186429;28;96811;-64
2023/01/02 08:31:10;;;;;;;;;49.00;38.20;;;;;22.00;34.42;99324.81;6182787;28;96698;-64
2023/01/02 08:34:13;;;;;;;;;47.20;38.20;;;;;21.95;34.35;99324.84;6186602;28;96529;-64
2023/01/02 08:37:17;;;;;;;;;50.00;39.00;;;;;22.02;34.53;99322.63;6176145;28;96292;-64
2023/01/02 08:40:20;;;;;;;;;46.50;38.25;;;;;21.98;34.61;99313.31;6184815;28;97790;-64
2023/01/02 08:43:25;;;;;;;;;50.60;39.00;;;;;22.55;33.66;99319.97;6179826;28;96281;-65
2023/01/02 08:46:30;;;;;;;;;47.00;39.00;;;;;22.96;33.32;99314.09;6185419;28;96843;-64
2023/01/02 08:49:40;;;;;;;;;51.60;40.60;;;;;23.47;32.92;99311.53;6186229;28;96254;-64
2023/01/02 08:52:44;;;;;;;;;49.25;40.00;;;;;23.16;32.77;99324.84;6184997;28;97103;-64
2023/01/02 08:55:47;;;;;;;;;50.00;41.00;;;;;23.29;33.01;99311.22;6176503;27;96739;-64
2023/01/02 08:58:53;;;;;;;;;52.40;41.80;;;;;23.69;32.17;99311.81;6180773;28;96463;-64
2023/01/02 09:01:56;;;;;;;;;52.00;43.00;;;;;23.64;32.39;99309.13;6185464;28;96268;-64
2023/01/02 09:05:00;;;;;;;;;52.00;43.40;;;;;23.24;33.08;99299.44;6185868;28;96332;-65
2023/01/02 09:08:03;;;;;;;;;50.00;40.50;;;;;22.58;33.43;99305.63;6176494;28;96566;-64
2023/01/02 09:11:12;;;;;;;;;51.40;42.00;;;;;21.84;34.29;99301.31;6183031;28;96409;-64
2023/01/02 09:14:18;;;;;;;;;53.40;42.00;;;;;21.13;35.18;99292.63;6178362;28;96274;-65
2023/01/02 09:17:21;;;;;;;;;49.00;40.80;;;;;20.70;36.17;99292.22;6180890;28;96323;-65
2023/01/02 09:20:24;;;;;;;;;52.00;42.00;;;;;20.16;37.19;99294.72;6185556;28;96272;-64
2023/01/02 09:23:29;;;;;;;;;50.00;41.00;;;;;19.78;38.21;99285.13;6185956;28;96241;-65
2023/01/02 09:26:32;;;;;;;;;54.60;41.00;;;;;19.45;38.57;99280.13;6185240;28;96547;-64
2023/01/02 09:29:37;;;;;;;;;55.00;43.00;;;;;19.11;39.35;99278.94;6183592;28;96326;-64
2023/01/02 09:32:40;;;;;;;;;52.00;42.67;;;;;18.78;39.57;99267.28;6181979;28;97693;-64
2023/01/02 09:35:44;;;;;;;;;52.00;42.00;;;;;18.52;39.95;99265.50;6185042;28;96557;-64
2023/01/02 09:38:51;;;;;;;;;55.20;44.00;;;;;18.58;40.18;99251.63;6184929;28;96294;-63
2023/01/02 09:41:57;;;;;;;;;51.60;43.00;;;;;19.23;39.25;99250.25;6184963;28;96345;-64
2023/01/02 09:45:04;;;;;;;;;51.00;41.40;;;;;20.02;38.16;99257.22;6173379;28;96464;-64
2023/01/02 09:48:15;;;;;;;;;54.20;43.40;;;;;20.27;37.33;99251.75;6183530;28;96961;-64
2023/01/02 09:51:19;;;;;;;;;49.00;41.00;;;;;20.05;37.28;99246.53;6163626;28;96425;-64
2023/01/02 09:54:25;;;;;;;;;52.60;43.40;;;;;20.20;37.25;99243.81;6183109;28;96873;-64
2023/01/02 09:57:39;;;;;;;;;53.40;43.40;;;;;21.41;35.51;99252.72;6177780;28;96364;-65
2023/01/02 10:00:47;;;;;;;;;49.80;40.00;;;;;23.08;33.41;99243.81;6184021;28;96211;-65
2023/01/02 10:04:00;;;;;;;;;50.20;40.00;;;;;25.12;29.74;99242.06;6174860;28;96425;-62
2023/01/02 10:07:11;;;;;;;;;46.00;38.00;;;;;27.06;27.30;99226.69;6173725;28;96946;-61
2023/01/02 10:10:24;;;;;;;;;48.00;39.00;;;;;28.00;25.27;99237.84;6184245;28;97017;-63
2023/01/02 10:13:34;;;;;;;;;49.80;40.00;;;;;28.99;24.72;99235.78;6183623;28;97229;-62
2023/01/02 10:17:00;;;;;;;;;46.60;37.60;;;;;30.06;23.59;99230.47;6184858;28;96855;-62
2023/01/02 10:20:08;;;;;;;;;45.00;37.00;;;;;30.94;21.95;99229.13;6171557;28;96485;-63
2023/01/02 10:23:16;;;;;;;;;41.00;34.20;;;;;31.83;21.20;99211.25;6183098;28;96370;-64
2023/01/02 10:26:22;;;;;;;;;39.00;34.40;;;;;32.56;20.59;99210.88;6176193;28;96534;-63
2023/01/02 10:29:29;;;;;;;;;36.00;31.25;;;;;33.19;19.72;99210.88;6174324;28;96644;-62
2023/01/02 10:32:35;;;;;;;;;37.20;32.00;;;;;33.20;19.08;99167.81;6184134;28;96258;-63
2023/01/02 10:35:43;;;;;;;;;38.60;34.00;;;;;33.67;19.27;99201.22;6183652;28;97718;-63
2023/01/02 10:38:46;;;;;;;;;42.20;34.20;;;;;33.77;19.35;99197.81;6183806;28;96442;-62
2023/01/02 10:41:53;;;;;;;;;33.60;30.00;;;;;34.05;18.54;99191.19;6183158;28;96417;-62
2023/01/02 10:44:56;;;;;;;;;38.40;32.40;;;;;33.99;17.84;99190.66;6184235;28;96985;-62
2023/01/02 10:48:01;;;;;;;;;37.00;32.00;;;;;33.76;18.61;99173.03;6183393;28;96967;-62
2023/01/02 10:51:12;;;;;;;;;36.80;32.40;;;;;33.66;18.36;99173.59;6184423;28;96236;-63
2023/01/02 10:54:15;;;;;;;;;40.00;34.00;;;;;33.77;18.30;99164.25;6184610;28;97507;-63
2023/01/02 10:57:23;;;;;;;;;39.75;33.00;;;;;33.24;18.30;99153.91;6183595;28;96864;-64
2023/01/02 11:00:29;;;;;;;;;37.50;33.00;;;;;33.13;18.48;99153.66;6184275;28;96746;-63
2023/01/02 11:03:34;;;;;;;;;40.00;35.00;;;;;33.48;18.90;99145.25;6184172;28;96205;-63
2023/01/02 11:06:50;;;;;;;;;39.25;32.00;;;;;33.87;18.37;99141.28;6183274;28;96232;-63
2023/01/02 11:09:56;;;;;;;;;41.33;35.00;;;;;33.76;18.20;99145.06;6184590;28;96279;-63
2023/01/02 11:13:02;;;;;;;;;42.40;34.60;;;;;33.55;18.56;99153.78;6183980;28;96411;-63
2023/01/02 11:16:06;;;;;;;;;37.00;33.75;;;;;33.41;18.06;99139.50;6183031;28;96322;-63
2023/01/02 11:19:19;;;;;;;;;41.00;35.00;;;;;32.97;18.74;99130.53;6175867;28;96801;-64
2023/01/02 11:22:35;;;;;;;;;43.40;37.40;;;;;32.42;19.28;99132.38;6182397;28;96264;-63
2023/01/02 11:25:40;;;;;;;;;46.60;38.80;;;;;31.90;19.96;99118.63;6177929;28;96902;-63
2023/01/02 11:28:44;;;;;;;;;45.00;37.60;;;;;31.66;19.85;99124.34;6177897;28;96633;-63
2023/01/02 11:31:51;;;;;;;;;45.00;38.00;;;;;31.55;20.35;99109.25;6176631;28;96481;-64
2023/01/02 11:35:05;;;;;;;;;45.00;36.40;;;;;31.90;19.94;99103.88;6175618;28;97022;-63
2023/01/02 11:38:14;;;;;;;;;45.20;38.80;;;;;32.34;19.72;99104.66;6182571;28;96429;-63
2023/01/02 11:44:54;;;;;;;;;45.40;37.40;;;;;32.31;19.16;99102.56;6182794;28;96562;-63
2023/01/02 11:48:02;;;;;;;;;44.00;36.00;;;;;31.83;19.74;99096.94;6182966;28;96496;-63
2023/01/02 11:51:15;;;;;;;;;45.00;37.60;;;;;31.73;19.75;99086.31;6182949;28;96663;-63
2023/01/02 11:54:23;;;;;;;;;46.60;38.00;;;;;31.86;19.82;99084.28;6167429;28;97025;-63
2023/01/02 11:57:35;;;;;;;;;45.00;37.00;;;;;32.18;19.50;99090.72;6171667;28;96485;-64
2023/01/02 12:00:41;;;;;;;;;41.20;35.20;;;;;32.16;19.58;99079.91;6178349;28;96381;-64
2023/01/02 12:03:45;;;;;;;;;44.00;36.00;;;;;32.19;19.97;99087.56;6166208;28;96403;-64
2023/01/02 12:07:10;;;;;;;;;45.40;37.60;;;;;31.87;19.67;99071.13;6163211;28;96763;-63
2023/01/02 12:10:27;;;;;;;;;45.00;36.00;;;;;31.69;20.06;99067.88;6159438;28;96656;-63
2023/01/02 12:13:46;;;;;;;;;51.00;40.50;;;;;31.35;20.32;99067.31;6165253;28;96544;-63
2023/01/02 12:16:59;;;;;;;;;51.20;40.00;;;;;31.16;20.12;99066.34;6162875;28;97233;-62
2023/01/02 12:20:20;;;;;;;;;48.80;40.00;;;;;30.81;21.03;99060.50;6165593;28;96305;-63
2023/01/02 12:23:37;;;;;;;;;51.80;41.00;;;;;30.97;20.74;99070.56;6176367;28;96459;-63
2023/01/02 12:26:47;;;;;;;;;51.50;41.00;;;;;30.93;21.14;99064.06;6176866;28;99971;-62
2023/01/02 12:30:01;;;;;;;;;53.00;43.00;;;;;30.81;20.93;99063.28;6166112;28;96799;-62
2023/01/02 12:33:25;;;;;;;;;51.20;41.20;;;;;30.42;21.39;99054.50;6174798;28;96477;-63
2023/01/02 12:36:52;;;;;;;;;49.00;41.00;;;;;29.96;21.75;99057.69;6181832;28;97046;-63
2023/01/02 12:40:09;;;;;;;;;49.80;40.80;;;;;29.68;21.75;99065.84;6175102;28;96521;-62
2023/01/02 12:43:48;;;;;;;;;50.80;42.00;;;;;29.52;21.96;99057.34;6159866;28;96157;-63
2023/01/02 12:47:26;;;;;;;;;50.00;40.00;;;;;29.16;22.48;99060.78;6183885;28;96410;-61
2023/01/02 12:50:57;;;;;;;;;50.80;41.00;;;;;28.47;23.29;99051.31;6186049;28;96489;-63
2023/01/02 12:54:23;;;;;;;;;46.20;38.20;;;;;27.74;24.23;99058.94;6172748;28;96912;-62
2023/01/02 12:57:35;;;;;;;;;45.80;38.80;;;;;27.22;25.38;99061.75;6184758;28;97186;-63
2023/01/02 13:01:00;;;;;;;;;49.00;40.00;;;;;26.71;25.71;99055.06;6184840;28;97279;-62
2023/01/02 13:04:14;;;;;;;;;49.00;39.60;;;;;26.27;26.00;99060.81;6172223;28;96411;-62
2023/01/02 13:07:28;;;;;;;;;47.60;40.00;;;;;25.91;26.60;99044.38;6185224;28;96409;-62
2023/01/02 13:10:33;;;;;;;;;47.00;39.00;;;;;25.65;27.04;99060.84;6185376;28;96328;-63
2023/01/02 13:13:38;;;;;;;;;44.80;36.80;;;;;25.26;27.52;99039.47;6184918;28;96377;-63
2023/01/02 13:16:47;;;;;;;;;49.40;39.40;;;;;25.00;27.83;99055.00;6171892;28;96488;-62
2023/01/02 13:19:56;;;;;;;;;46.80;36.80;;;;;24.89;28.38;99073.72;6185619;28;96404;-62
2023/01/02 13:23:09;;;;;;;;;47.00;38.00;;;;;24.72;28.39;99073.56;6181243;28;96345;-63
2023/01/02 13:26:15;;;;;;;;;43.60;36.20;;;;;24.49;29.03;99085.63;6181082;28;96280;-62
2023/01/02 13:29:28;;;;;;;;;47.00;37.60;;;;;24.37;29.17;99085.34;6183521;28;96531;-63
2023/01/02 13:32:32;;;;;;;;;46.00;38.80;;;;;24.14;29.28;99076.94;6185760;28;96067;-62
2023/01/02 13:35:38;;;;;;;;;45.20;36.00;;;;;23.95;29.63;99081.72;6179775;28;96244;-61
2023/01/02 13:38:46;;;;;;;;;45.40;38.00;;;;;23.77;30.15;99082.59;6171029;28;98854;-62
2023/01/02 13:45:19;;;;;;;;;44.60;35.00;;;;;23.31;30.53;99077.84;6164491;28;96931;-63
2023/01/02 13:48:31;;;;;;;;;44.75;36.00;;;;;22.97;31.32;99076.50;6170543;28;96321;-63
2023/01/02 13:51:36;;;;;;;;;47.00;38.00;;;;;22.66;31.34;99085.16;6166080;28;96640;-62
2023/01/02 13:54:41;;;;;;;;;40.00;35.00;;;;;22.34;32.29;99082.28;6170333;28;96928;-62
2023/01/02 13:57:45;;;;;;;;;45.20;37.60;;;;;22.08;32.52;99081.78;6180163;28;97694;-62
2023/01/02 14:00:51;;;;;;;;;48.60;38.00;;;;;21.68;33.27;99061.03;6172449;28;96668;-62
2023/01/02 14:04:33;;;;;;;;;44.60;37.40;;;;;21.49;33.40;99077.41;6183104;28;97068;-62
2023/01/02 14:07:48;;;;;;;;;42.80;35.80;;;;;21.32;34.21;99079.75;6178976;28;96410;-61
2023/01/02 14:10:54;;;;;;;;;43.00;35.33;;;;;21.12;34.17;99083.44;6182723;28;96566;-62
2023/01/02 14:13:58;;;;;;;;;44.25;35.00;;;;;20.97;34.68;99082.72;6181335;28;96593;-62
2023/01/02 14:17:17;;;;;;;;;40.60;33.40;;;;;20.75;35.32;99086.69;6156314;28;97581;-62
2023/01/02 14:20:23;;;;;;;;;41.50;34.50;;;;;20.45;36.10;99080.56;6182311;28;96288;-62
2023/01/02 14:23:29;;;;;;;;;41.00;32.00;;;;;20.23;36.66;99076.22;6161230;28;96233;-62
2023/01/02 14:26:35;;;;;;;;;45.00;35.50;;;;;19.91;36.88;99078.53;6184487;27;97837;-61
2023/01/02 14:29:45;;;;;;;;;43.40;35.00;;;;;19.43;37.65;99039.78;6176917;28;96486;-61